Time;durP1;ratioP1;P1;durP2;ratioP2;P2;SDS_P1;SDS_P2;PMS_P1;PMS_P2;Temp;Humidity;BMP_temperature;BMP_pressure;BME280_temperature;BME280_humidity;BME280_pressure;Samples;Min_cycle;Max_cycle;Signal;HPM_P1;HPM_P2
2021/10/14 00:00:40;;;;;;;7.43;6.30;;;11.90;99.90;;;;;;5024280;27;20251;-71
2021/10/14 00:03:06;;;;;;;7.85;6.03;;;11.90;99.90;;;;;;5019069;28;20523;-71
2021/10/14 00:05:33;;;;;;;6.63;5.93;;;11.90;99.90;;;;;;5010604;28;20572;-72
2021/10/14 00:07:59;;;;;;;8.03;6.00;;;11.90;99.90;;;;;;5011557;28;20911;-72
2021/10/14 00:10:24;;;;;;;7.50;5.37;;;11.90;99.90;;;;;;5010453;28;20429;-72
2021/10/14 00:12:50;;;;;;;8.00;6.60;;;11.90;99.90;;;;;;5009915;28;20415;-72
2021/10/14 00:15:15;;;;;;;8.13;6.37;;;11.90;99.90;;;;;;5010564;28;20571;-72
2021/10/14 00:17:41;;;;;;;7.30;6.50;;;11.80;99.90;;;;;;5012188;28;20168;-72
2021/10/14 00:20:08;;;;;;;9.70;6.30;;;11.80;99.90;;;;;;5013646;27;20266;-71
2021/10/14 00:22:33;;;;;;;8.20;6.87;;;11.80;99.90;;;;;;5014060;28;20172;-71
2021/10/14 00:24:59;;;;;;;12.77;6.93;;;11.80;99.90;;;;;;5013421;28;20406;-71
2021/10/14 00:27:24;;;;;;;9.63;7.47;;;11.80;99.90;;;;;;5013698;28;20168;-71
2021/10/14 00:29:50;;;;;;;11.07;6.67;;;11.80;99.90;;;;;;5014778;28;20207;-71
2021/10/14 00:32:16;;;;;;;8.43;6.23;;;11.70;99.90;;;;;;5013673;28;20183;-72
2021/10/14 00:34:41;;;;;;;7.53;6.80;;;11.70;99.90;;;;;;5013021;28;20271;-72
2021/10/14 00:37:07;;;;;;;10.83;7.33;;;11.80;99.90;;;;;;5013553;28;20274;-72
2021/10/14 00:39:32;;;;;;;8.40;7.50;;;11.70;99.90;;;;;;5014809;28;20539;-72
2021/10/14 00:41:58;;;;;;;8.77;6.90;;;11.70;99.90;;;;;;5020212;27;20198;-72
2021/10/14 00:44:24;;;;;;;7.77;6.47;;;11.80;99.90;;;;;;5015629;28;20175;-72
2021/10/14 00:46:54;;;;;;;8.20;7.40;;;11.70;99.90;;;;;;5013805;28;20244;-72
2021/10/14 00:49:20;;;;;;;9.97;7.53;;;11.60;99.90;;;;;;5013638;28;20183;-72
2021/10/14 00:51:46;;;;;;;10.93;7.43;;;11.60;99.90;;;;;;5013311;28;20409;-72
2021/10/14 00:54:13;;;;;;;10.07;7.53;;;11.60;99.90;;;;;;5014841;28;20436;-72
2021/10/14 00:56:41;;;;;;;7.80;7.00;;;11.60;99.90;;;;;;5013035;28;20469;-72
2021/10/14 00:59:07;;;;;;;7.77;6.90;;;11.60;99.90;;;;;;5013279;28;20415;-72
2021/10/14 01:01:32;;;;;;;11.77;7.30;;;11.60;99.90;;;;;;5013073;27;20518;-72
2021/10/14 01:03:58;;;;;;;9.30;7.47;;;11.60;99.90;;;;;;5014334;28;20484;-72
2021/10/14 01:06:24;;;;;;;8.10;6.77;;;11.60;99.90;;;;;;5013341;28;20656;-72
2021/10/14 01:08:49;;;;;;;8.60;7.33;;;11.60;99.90;;;;;;5013211;28;20168;-72
2021/10/14 01:11:15;;;;;;;10.63;7.80;;;11.70;99.90;;;;;;5013119;28;20250;-72
2021/10/14 01:13:40;;;;;;;11.53;7.30;;;11.70;99.90;;;;;;5013710;28;20273;-72
2021/10/14 01:16:06;;;;;;;8.47;7.00;;;11.70;99.90;;;;;;5013438;28;20237;-72
2021/10/14 01:18:32;;;;;;;10.90;7.40;;;11.70;99.90;;;;;;5013589;28;20171;-72
2021/10/14 01:20:57;;;;;;;10.03;7.00;;;11.70;99.90;;;;;;5011877;28;20224;-72
2021/10/14 01:23:23;;;;;;;6.77;5.90;;;11.60;99.90;;;;;;5013052;28;20172;-72
2021/10/14 01:25:48;;;;;;;8.90;6.47;;;11.60;99.90;;;;;;5014016;28;20453;-72
2021/10/14 01:28:15;;;;;;;11.90;6.27;;;11.60;99.90;;;;;;5013258;28;20167;-72
2021/10/14 01:30:41;;;;;;;9.47;6.77;;;11.70;99.90;;;;;;5010946;28;20183;-72
2021/10/14 01:33:07;;;;;;;8.97;6.43;;;11.60;99.90;;;;;;5012799;28;20415;-72
2021/10/14 01:35:33;;;;;;;10.30;7.00;;;11.60;99.90;;;;;;5012672;28;20980;-72
2021/10/14 01:37:59;;;;;;;10.73;6.53;;;11.60;99.90;;;;;;5013032;28;20171;-72
2021/10/14 01:40:24;;;;;;;7.63;6.13;;;11.60;99.90;;;;;;5012627;28;20179;-72
2021/10/14 01:42:50;;;;;;;10.77;6.60;;;11.60;99.90;;;;;;5013116;27;20216;-72
2021/10/14 01:45:16;;;;;;;10.83;6.60;;;11.60;99.90;;;;;;5012626;28;20196;-72
2021/10/14 01:47:41;;;;;;;10.03;6.03;;;11.60;99.90;;;;;;5031402;28;20271;-72
2021/10/14 01:50:07;;;;;;;14.60;6.37;;;11.70;99.90;;;;;;5032437;28;20199;-72
2021/10/14 01:52:33;;;;;;;12.30;6.23;;;11.70;99.90;;;;;;5032862;28;20515;-72
2021/10/14 01:54:59;;;;;;;11.83;7.00;;;11.70;99.90;;;;;;5032209;28;20406;-72
2021/10/14 01:57:24;;;;;;;9.50;7.27;;;11.60;99.90;;;;;;5030665;28;20302;-72
2021/10/14 01:59:50;;;;;;;9.67;6.10;;;11.60;99.90;;;;;;5032691;28;20262;-72
2021/10/14 02:02:15;;;;;;;9.73;6.80;;;11.60;99.90;;;;;;5032113;27;20239;-72
2021/10/14 02:04:41;;;;;;;10.40;7.03;;;11.60;99.90;;;;;;5031964;28;20245;-72
2021/10/14 02:07:06;;;;;;;9.97;7.47;;;11.60;99.90;;;;;;5030552;28;20195;-72
2021/10/14 02:09:32;;;;;;;11.87;7.17;;;11.50;99.90;;;;;;5032484;28;20211;-72
2021/10/14 02:11:57;;;;;;;9.63;7.00;;;11.50;99.90;;;;;;5032084;28;20210;-72
2021/10/14 02:14:23;;;;;;;9.70;6.90;;;11.50;99.90;;;;;;5031986;28;20179;-72
2021/10/14 02:16:49;;;;;;;9.80;6.90;;;11.50;99.90;;;;;;5031750;28;20286;-72
2021/10/14 02:19:15;;;;;;;9.77;6.77;;;11.50;99.90;;;;;;5030399;28;20191;-72
2021/10/14 02:21:40;;;;;;;12.00;8.27;;;11.50;99.90;;;;;;5031815;28;20538;-72
2021/10/14 02:24:06;;;;;;;9.80;8.30;;;11.60;99.90;;;;;;5031488;28;20219;-72
2021/10/14 02:26:31;;;;;;;10.67;8.20;;;11.50;99.90;;;;;;5031768;28;20582;-72
2021/10/14 02:28:57;;;;;;;9.40;6.97;;;11.50;99.90;;;;;;5030580;28;20262;-72
2021/10/14 02:31:22;;;;;;;15.40;8.53;;;11.50;99.90;;;;;;5032597;28;20199;-72
2021/10/14 02:33:48;;;;;;;9.80;7.83;;;11.50;99.90;;;;;;5031828;28;20288;-72
2021/10/14 02:36:14;;;;;;;13.43;9.67;;;11.40;99.90;;;;;;5033841;27;20268;-72
2021/10/14 02:38:39;;;;;;;15.30;9.57;;;11.40;99.90;;;;;;5032909;28;20635;-72
2021/10/14 02:41:05;;;;;;;12.80;9.90;;;11.40;99.90;;;;;;5039765;28;20187;-72
2021/10/14 02:43:31;;;;;;;12.00;10.70;;;11.30;99.90;;;;;;5014556;28;20542;-72
2021/10/14 02:45:56;;;;;;;11.83;9.90;;;11.20;99.90;;;;;;5012050;28;20203;-72
2021/10/14 02:48:22;;;;;;;13.23;10.40;;;11.10;99.90;;;;;;5022649;27;20471;-72
2021/10/14 02:50:47;;;;;;;12.73;11.43;;;11.20;99.90;;;;;;5010585;28;20442;-72
2021/10/14 02:53:13;;;;;;;17.47;10.03;;;11.10;99.90;;;;;;5013074;28;20262;-72
2021/10/14 02:55:38;;;;;;;12.30;8.47;;;11.00;99.90;;;;;;5011163;28;20257;-72
2021/10/14 02:58:04;;;;;;;8.13;7.30;;;11.00;99.90;;;;;;5011583;28;20255;-72
2021/10/14 03:00:30;;;;;;;9.67;8.10;;;11.10;99.90;;;;;;5011642;28;20255;-72
2021/10/14 03:02:55;;;;;;;12.50;10.00;;;11.00;99.90;;;;;;5012857;28;20190;-72
2021/10/14 03:05:21;;;;;;;12.20;9.77;;;10.90;99.90;;;;;;5018743;28;20481;-72
2021/10/14 03:07:46;;;;;;;11.20;9.30;;;10.90;99.90;;;;;;5011647;28;20505;-72
2021/10/14 03:10:12;;;;;;;12.43;9.20;;;10.90;99.90;;;;;;5011538;28;20176;-72
2021/10/14 03:12:38;;;;;;;14.30;8.70;;;11.00;99.90;;;;;;5011029;27;20199;-72
2021/10/14 03:15:04;;;;;;;15.53;9.70;;;11.10;99.90;;;;;;5012313;28;20187;-72
2021/10/14 03:17:30;;;;;;;14.30;9.80;;;11.00;99.90;;;;;;5011291;28;20170;-72
2021/10/14 03:19:55;;;;;;;13.10;10.40;;;11.00;99.90;;;;;;5009981;28;20414;-72
2021/10/14 03:25:43;;;;;;;16.47;9.47;;;10.90;99.90;;;;;;5016609;28;20195;-72
2021/10/14 03:28:08;;;;;;;17.57;11.10;;;11.00;99.90;;;;;;5016450;28;20413;-72
2021/10/14 03:30:34;;;;;;;17.00;11.00;;;11.00;99.90;;;;;;5030495;28;20250;-72
2021/10/14 03:33:00;;;;;;;14.10;11.80;;;11.00;99.90;;;;;;5030489;27;20186;-72
2021/10/14 03:35:26;;;;;;;16.03;12.30;;;11.00;99.90;;;;;;5030759;28;20449;-72
2021/10/14 03:37:51;;;;;;;17.93;12.67;;;11.00;99.90;;;;;;5030088;28;20172;-72
2021/10/14 03:40:17;;;;;;;17.93;12.13;;;11.00;99.90;;;;;;5029623;28;20191;-72
2021/10/14 03:42:42;;;;;;;15.60;11.97;;;11.10;99.90;;;;;;5024974;28;20247;-72
2021/10/14 03:45:08;;;;;;;16.83;12.70;;;11.00;99.90;;;;;;5019238;27;20307;-72
2021/10/14 03:47:34;;;;;;;13.53;12.10;;;10.90;99.90;;;;;;5011769;28;20697;-72
2021/10/14 03:49:59;;;;;;;14.73;12.33;;;10.90;99.90;;;;;;5011914;28;20541;-72
2021/10/14 03:52:25;;;;;;;16.23;14.53;;;10.90;99.90;;;;;;5010561;28;20167;-72
2021/10/14 03:54:50;;;;;;;16.77;13.90;;;11.00;99.90;;;;;;5010436;28;20175;-72
2021/10/14 03:57:16;;;;;;;18.00;14.30;;;11.00;99.90;;;;;;5010688;28;20172;-72
2021/10/14 03:59:41;;;;;;;19.57;15.17;;;11.00;99.90;;;;;;5012130;28;20179;-72
2021/10/14 04:02:07;;;;;;;20.17;14.83;;;11.10;99.90;;;;;;5011062;28;20637;-73
2021/10/14 04:04:33;;;;;;;18.77;15.33;;;11.10;99.90;;;;;;5010344;28;20570;-73
2021/10/14 04:06:58;;;;;;;18.20;14.90;;;11.10;99.90;;;;;;5010801;28;20458;-73
2021/10/14 04:09:24;;;;;;;19.20;15.70;;;11.20;99.90;;;;;;5010735;27;20192;-70
2021/10/14 04:11:49;;;;;;;21.40;16.27;;;11.10;99.90;;;;;;5011745;28;20187;-73
2021/10/14 04:14:15;;;;;;;18.87;15.30;;;11.10;99.90;;;;;;5010807;28;20671;-73
2021/10/14 04:16:40;;;;;;;19.73;15.77;;;11.20;99.90;;;;;;5010097;28;20195;-70
2021/10/14 04:19:07;;;;;;;20.40;16.63;;;11.10;99.90;;;;;;5010519;28;20175;-73
2021/10/14 04:21:34;;;;;;;19.97;15.70;;;11.10;99.90;;;;;;5010516;28;20171;-73
2021/10/14 04:24:00;;;;;;;25.40;16.63;;;11.10;99.90;;;;;;5010330;28;20434;-73
2021/10/14 04:26:25;;;;;;;22.30;16.27;;;11.10;99.90;;;;;;5009063;28;20883;-73
2021/10/14 04:28:51;;;;;;;22.27;17.40;;;11.10;99.90;;;;;;5010555;28;20625;-73
2021/10/14 04:31:17;;;;;;;19.33;17.20;;;11.10;99.90;;;;;;5011396;28;20197;-73
2021/10/14 04:33:42;;;;;;;24.03;17.80;;;11.10;99.90;;;;;;5010912;28;20217;-73
2021/10/14 04:36:08;;;;;;;19.83;15.73;;;11.10;99.90;;;;;;5010391;28;20208;-73
2021/10/14 04:38:34;;;;;;;23.93;16.83;;;11.10;99.90;;;;;;5010603;28;20538;-73
2021/10/14 04:41:00;;;;;;;19.07;16.00;;;11.10;99.90;;;;;;5010081;27;20184;-73
2021/10/14 04:43:25;;;;;;;21.93;16.07;;;11.00;99.90;;;;;;5011409;28;20464;-73
2021/10/14 04:45:51;;;;;;;21.90;16.87;;;11.00;99.90;;;;;;5010520;28;20229;-73
2021/10/14 04:48:17;;;;;;;21.47;16.70;;;11.00;99.90;;;;;;5010179;28;20171;-70
2021/10/14 04:50:43;;;;;;;22.87;16.53;;;11.00;99.90;;;;;;5010158;28;20423;-71
2021/10/14 04:53:09;;;;;;;22.10;17.90;;;10.90;99.90;;;;;;5011490;28;20502;-73
2021/10/14 04:55:35;;;;;;;24.90;17.40;;;10.90;99.90;;;;;;5010834;27;20580;-73
2021/10/14 04:58:00;;;;;;;19.93;16.03;;;11.00;99.90;;;;;;5021275;28;20175;-71
2021/10/14 05:00:26;;;;;;;24.17;17.60;;;11.00;99.90;;;;;;5010460;28;20195;-71
2021/10/14 05:02:52;;;;;;;24.97;18.13;;;11.10;99.90;;;;;;5007839;27;20214;-73
2021/10/14 05:05:17;;;;;;;26.60;18.50;;;11.00;99.90;;;;;;5022770;28;20681;-73
2021/10/14 05:07:44;;;;;;;22.10;17.30;;;11.00;99.90;;;;;;5087291;27;20199;-72
2021/10/14 05:10:09;;;;;;;22.93;18.47;;;11.00;99.90;;;;;;5031266;27;20228;-72
2021/10/14 05:12:36;;;;;;;23.80;17.60;;;11.00;99.90;;;;;;5031525;28;20446;-72
2021/10/14 05:15:05;;;;;;;22.57;17.97;;;11.00;99.90;;;;;;5026190;27;20241;-73
2021/10/14 05:17:31;;;;;;;22.50;17.67;;;11.00;99.90;;;;;;5040858;28;20456;-73
2021/10/14 05:19:56;;;;;;;26.40;18.47;;;11.00;99.90;;;;;;5030026;27;20465;-73
2021/10/14 05:22:22;;;;;;;21.60;17.90;;;11.00;99.90;;;;;;5017865;28;20207;-73
2021/10/14 05:24:47;;;;;;;26.47;17.83;;;11.10;99.90;;;;;;5011727;27;20219;-73
2021/10/14 05:27:13;;;;;;;26.37;18.53;;;11.10;99.90;;;;;;5015807;28;20203;-73
2021/10/14 05:29:38;;;;;;;23.50;17.50;;;11.10;99.90;;;;;;5015039;27;20210;-72
2021/10/14 05:32:04;;;;;;;27.63;18.90;;;11.10;99.90;;;;;;5016098;28;20528;-73
2021/10/14 05:34:30;;;;;;;27.53;18.40;;;11.10;99.90;;;;;;5022615;27;20226;-73
2021/10/14 05:36:55;;;;;;;26.80;19.77;;;11.10;99.90;;;;;;5006545;27;20284;-73
2021/10/14 05:39:21;;;;;;;23.27;18.27;;;11.00;99.90;;;;;;5019631;27;20215;-72
2021/10/14 05:41:46;;;;;;;24.87;18.80;;;11.10;99.90;;;;;;5017687;28;20222;-72
2021/10/14 05:44:12;;;;;;;30.05;20.42;;;11.00;99.90;;;;;;5010744;27;20839;-72
2021/10/14 05:46:37;;;;;;;30.27;20.30;;;11.10;99.90;;;;;;5010065;27;20241;-72
2021/10/14 05:49:03;;;;;;;29.80;20.60;;;11.10;99.90;;;;;;5010465;28;20529;-73
2021/10/14 05:51:29;;;;;;;24.50;19.60;;;11.10;99.90;;;;;;5017243;27;20222;-73
2021/10/14 05:53:54;;;;;;;30.63;23.27;;;11.00;99.90;;;;;;5011542;28;20435;-73
2021/10/14 05:56:23;;;;;;;28.40;22.13;;;11.10;99.90;;;;;;5020541;27;20227;-73
2021/10/14 05:58:48;;;;;;;26.53;20.07;;;11.10;99.90;;;;;;5016836;28;20199;-73
2021/10/14 06:01:13;;;;;;;29.80;20.43;;;11.10;99.90;;;;;;5016628;27;21046;-72
2021/10/14 06:03:39;;;;;;;27.63;19.60;;;11.10;99.90;;;;;;5021570;28;20259;-73
2021/10/14 06:06:04;;;;;;;27.67;18.37;;;11.20;99.90;;;;;;5023219;27;20298;-73
2021/10/14 06:08:30;;;;;;;31.37;18.70;;;11.20;99.90;;;;;;5014341;28;20664;-71
2021/10/14 06:10:56;;;;;;;26.20;19.73;;;11.20;99.90;;;;;;5026873;27;20729;-71
2021/10/14 06:13:21;;;;;;;31.60;20.00;;;11.20;99.90;;;;;;5025819;28;20290;-71
2021/10/14 06:15:47;;;;;;;30.80;21.37;;;11.20;99.90;;;;;;5026859;27;20307;-74
2021/10/14 06:18:12;;;;;;;32.40;20.00;;;11.30;99.90;;;;;;5024696;28;20227;-72
2021/10/14 06:20:38;;;;;;;30.10;20.20;;;11.20;99.90;;;;;;5019462;27;20282;-72
2021/10/14 06:23:05;;;;;;;27.43;20.00;;;11.20;99.90;;;;;;5027216;28;20195;-72
2021/10/14 06:25:31;;;;;;;33.17;20.13;;;11.20;99.90;;;;;;5025979;27;20221;-72
2021/10/14 06:27:57;;;;;;;28.00;19.63;;;11.20;99.90;;;;;;5025773;28;20934;-72
2021/10/14 06:30:22;;;;;;;29.73;20.17;;;11.20;99.90;;;;;;5023304;27;20217;-72
2021/10/14 06:32:48;;;;;;;31.50;20.70;;;11.10;99.90;;;;;;5009639;28;20202;-73
2021/10/14 06:35:14;;;;;;;28.50;19.27;;;11.10;99.90;;;;;;5025562;27;20290;-74
2021/10/14 06:37:39;;;;;;;28.20;19.77;;;11.10;99.90;;;;;;5026379;28;20202;-73
2021/10/14 06:40:05;;;;;;;25.30;19.13;;;11.10;99.90;;;;;;5023658;27;20223;-74
2021/10/14 06:42:31;;;;;;;30.83;19.93;;;11.10;99.90;;;;;;5016022;28;20180;-73
2021/10/14 06:44:56;;;;;;;26.60;20.07;;;11.10;99.90;;;;;;5026923;28;20430;-73
2021/10/14 06:47:22;;;;;;;29.20;21.10;;;11.10;99.90;;;;;;5035839;28;20665;-73
2021/10/14 06:49:48;;;;;;;26.50;18.97;;;11.10;99.90;;;;;;5047709;28;20189;-73
2021/10/14 06:52:17;;;;;;;26.30;18.80;;;11.20;99.90;;;;;;5112880;27;20163;-73
2021/10/14 06:54:44;;;;;;;28.87;16.93;;;11.20;99.90;;;;;;5029865;27;20468;-73
2021/10/14 06:57:10;;;;;;;27.60;17.73;;;11.20;99.90;;;;;;5023680;27;20860;-73
2021/10/14 06:59:36;;;;;;;28.23;17.10;;;11.20;99.90;;;;;;5016928;28;20406;-73
2021/10/14 07:02:01;;;;;;;25.50;17.53;;;11.30;99.90;;;;;;5021930;28;20183;-73
2021/10/14 07:04:27;;;;;;;25.73;15.77;;;11.30;99.90;;;;;;5027622;28;20174;-72
2021/10/14 07:06:53;;;;;;;21.10;15.53;;;11.30;99.90;;;;;;5016365;28;20202;-72
2021/10/14 07:09:18;;;;;;;22.30;15.60;;;11.30;99.90;;;;;;5040558;28;20627;-74
2021/10/14 07:11:52;;;;;;;22.17;16.70;;;11.20;99.90;;;;;;5017808;28;20892;-73
2021/10/14 07:14:18;;;;;;;24.73;17.00;;;11.20;99.90;;;;;;5023170;28;20409;-73
2021/10/14 07:16:43;;;;;;;23.97;17.30;;;11.30;99.90;;;;;;5027999;28;20222;-73
2021/10/14 07:19:09;;;;;;;27.00;15.47;;;11.30;99.90;;;;;;5028062;28;20470;-73
2021/10/14 07:21:34;;;;;;;22.53;16.40;;;11.30;99.90;;;;;;5028532;28;20181;-73
2021/10/14 07:24:00;;;;;;;19.33;15.20;;;11.20;99.90;;;;;;5053269;28;20179;-73
2021/10/14 07:26:26;;;;;;;23.70;15.00;;;11.10;99.90;;;;;;5069155;28;20198;-72
2021/10/14 07:28:51;;;;;;;19.17;14.70;;;11.20;99.90;;;;;;5031625;28;20548;-73
2021/10/14 07:31:17;;;;;;;20.10;14.13;;;11.20;99.90;;;;;;5016156;28;20277;-73
2021/10/14 07:33:43;;;;;;;15.30;12.30;;;11.30;99.90;;;;;;5027944;28;20183;-73
2021/10/14 07:36:10;;;;;;;17.90;12.13;;;11.20;99.90;;;;;;5027260;27;20263;-73
2021/10/14 07:38:35;;;;;;;19.70;12.03;;;11.10;99.90;;;;;;5026010;28;20918;-73
2021/10/14 07:41:01;;;;;;;13.10;11.30;;;11.10;99.90;;;;;;5027269;28;20427;-73
2021/10/14 07:43:26;;;;;;;13.50;11.30;;;11.10;99.90;;;;;;5026896;28;20922;-73
2021/10/14 07:45:52;;;;;;;18.03;13.40;;;11.20;99.90;;;;;;5027492;28;20206;-73
2021/10/14 07:48:18;;;;;;;16.80;12.33;;;11.20;99.90;;;;;;5027956;27;20285;-71
2021/10/14 07:50:44;;;;;;;17.93;14.33;;;11.30;99.90;;;;;;5026669;28;20212;-72
2021/10/14 07:53:18;;;;;;;17.40;12.93;;;11.30;99.90;;;;;;5042275;28;20184;-71
2021/10/14 07:55:45;;;;;;;15.33;13.70;;;11.30;99.90;;;;;;5008042;28;20983;-72
2021/10/14 07:58:11;;;;;;;16.20;13.60;;;11.30;99.90;;;;;;5035665;28;20424;-72
2021/10/14 08:00:38;;;;;;;19.67;16.17;;;11.30;99.90;;;;;;5021331;28;20434;-72
2021/10/14 08:03:04;;;;;;;23.67;15.13;;;11.30;99.90;;;;;;5040086;28;20414;-72
2021/10/14 08:05:29;;;;;;;24.10;16.33;;;11.30;99.90;;;;;;5009671;28;20437;-72
2021/10/14 08:07:55;;;;;;;26.27;16.47;;;11.30;99.90;;;;;;5009724;27;20504;-73
2021/10/14 08:10:21;;;;;;;23.67;16.60;;;11.30;99.90;;;;;;5023366;28;20214;-72
2021/10/14 08:12:46;;;;;;;24.70;16.80;;;11.20;99.90;;;;;;5021932;28;20449;-71
2021/10/14 08:15:12;;;;;;;22.57;17.23;;;11.30;99.90;;;;;;5036197;28;20295;-73
2021/10/14 08:17:38;;;;;;;26.40;17.83;;;11.20;99.90;;;;;;5027892;27;20249;-72
2021/10/14 08:20:08;;;;;;;28.43;17.77;;;11.30;99.90;;;;;;5077935;27;20214;-73
2021/10/14 08:22:37;;;;;;;28.10;18.57;;;11.30;99.90;;;;;;5022453;27;20484;-74
2021/10/14 08:25:04;;;;;;;28.50;18.47;;;11.40;99.90;;;;;;5018549;28;20442;-73
2021/10/14 08:27:30;;;;;;;29.13;19.20;;;11.40;99.90;;;;;;5024242;27;20495;-72
2021/10/14 08:29:56;;;;;;;36.17;20.73;;;11.40;99.90;;;;;;5037441;28;20449;-73
2021/10/14 08:32:21;;;;;;;32.03;20.00;;;11.50;99.90;;;;;;5018325;27;20215;-72
2021/10/14 08:34:47;;;;;;;30.47;20.70;;;11.50;99.90;;;;;;5024458;28;20552;-73
2021/10/14 08:37:12;;;;;;;29.97;20.73;;;11.40;99.90;;;;;;5027232;27;20234;-72
2021/10/14 08:39:38;;;;;;;31.10;21.10;;;11.40;99.90;;;;;;5025410;28;20294;-72
2021/10/14 08:42:04;;;;;;;31.00;21.73;;;11.40;99.90;;;;;;5017306;27;20253;-72
2021/10/14 08:44:31;;;;;;;30.67;18.80;;;11.40;99.90;;;;;;5028467;28;20207;-72
2021/10/14 08:46:58;;;;;;;29.13;17.80;;;11.40;99.90;;;;;;5027710;27;20214;-72
2021/10/14 08:49:24;;;;;;;23.70;17.20;;;11.50;99.90;;;;;;5028264;28;20464;-72
2021/10/14 08:51:51;;;;;;;23.13;18.00;;;11.60;99.90;;;;;;5027057;27;20914;-73
2021/10/14 08:54:17;;;;;;;18.90;14.67;;;11.60;99.90;;;;;;5027575;28;20449;-72
2021/10/14 08:56:44;;;;;;;19.50;14.80;;;11.60;99.90;;;;;;5025831;27;20546;-72
2021/10/14 08:59:12;;;;;;;21.17;15.13;;;11.50;99.90;;;;;;5014210;28;20203;-72
2021/10/14 09:01:40;;;;;;;20.87;14.30;;;11.50;99.90;;;;;;5027014;27;20501;-72
2021/10/14 09:04:14;;;;;;;19.10;14.03;;;11.50;99.90;;;;;;5022820;28;20465;-72
2021/10/14 09:06:41;;;;;;;16.67;13.53;;;11.60;99.90;;;;;;5020450;27;21254;-72
2021/10/14 09:09:07;;;;;;;17.53;13.17;;;11.50;99.90;;;;;;5022515;28;20433;-72
2021/10/14 09:11:32;;;;;;;18.33;13.63;;;11.60;99.90;;;;;;5051953;28;20534;-72
2021/10/14 09:14:05;;;;;;;22.57;15.60;;;11.60;99.90;;;;;;5043423;27;20462;-72
2021/10/14 09:16:32;;;;;;;20.70;14.67;;;11.60;99.90;;;;;;5042503;28;20221;-73
2021/10/14 09:19:19;;;;;;;25.93;16.63;;;11.50;99.90;;;;;;5032004;27;20559;-72
2021/10/14 09:21:59;;;;;;;24.10;16.20;;;11.60;99.90;;;;;;5036484;28;20891;-72
2021/10/14 09:24:39;;;;;;;23.90;18.40;;;11.50;99.90;;;;;;5027359;27;20537;-72
2021/10/14 09:27:06;;;;;;;27.67;19.27;;;11.60;99.90;;;;;;5012587;27;20457;-72
2021/10/14 09:29:33;;;;;;;28.50;18.20;;;11.60;99.90;;;;;;5024714;28;20446;-72
2021/10/14 09:32:06;;;;;;;25.43;18.20;;;11.60;99.90;;;;;;5028040;27;20437;-71
2021/10/14 09:34:35;;;;;;;27.13;19.87;;;11.70;99.90;;;;;;5046770;28;20765;-72
2021/10/14 09:37:24;;;;;;;31.90;20.70;;;11.60;99.90;;;;;;5021975;28;20474;-72
2021/10/14 09:40:12;;;;;;;29.80;20.40;;;11.70;99.90;;;;;;5024015;28;20481;-73
2021/10/14 09:42:52;;;;;;;33.27;21.23;;;11.70;99.90;;;;;;5016938;27;20474;-73
2021/10/14 09:45:26;;;;;;;33.70;23.43;;;11.70;99.90;;;;;;5023373;28;20440;-73
2021/10/14 09:48:04;;;;;;;31.33;21.03;;;11.80;99.90;;;;;;5021153;27;20462;-73
2021/10/14 09:50:49;;;;;;;31.33;19.60;;;11.70;99.90;;;;;;5021063;28;20473;-73
2021/10/14 09:53:17;;;;;;;29.40;20.37;;;11.60;99.90;;;;;;5014478;27;20445;-73
2021/10/14 09:55:43;;;;;;;31.87;20.57;;;11.70;99.90;;;;;;5027538;28;20460;-73
2021/10/14 09:58:09;;;;;;;31.27;21.10;;;11.80;99.90;;;;;;5011308;27;20517;-73
2021/10/14 10:00:37;;;;;;;28.57;18.60;;;11.80;99.90;;;;;;5025417;28;20948;-73
2021/10/14 10:03:04;;;;;;;32.87;19.37;;;11.80;99.90;;;;;;5026741;27;21003;-72
2021/10/14 10:05:30;;;;;;;28.90;20.17;;;11.80;99.90;;;;;;5035187;28;20520;-72
2021/10/14 10:07:59;;;;;;;24.47;18.43;;;11.90;99.90;;;;;;5042186;27;20465;-72
2021/10/14 10:10:26;;;;;;;28.17;19.23;;;11.80;99.90;;;;;;5023038;28;20494;-72
2021/10/14 10:12:55;;;;;;;28.40;21.92;;;11.90;99.90;;;;;;5021564;27;20414;-72
2021/10/14 10:16:10;;;;;;;32.10;21.77;;;11.90;99.90;;;;;;5027006;28;20199;-72
2021/10/14 10:18:38;;;;;;;29.20;19.90;;;11.90;99.90;;;;;;4944474;28;20492;-72
2021/10/14 10:21:06;;;;;;;30.97;21.10;;;12.00;99.90;;;;;;4945899;28;20455;-71
2021/10/14 10:23:47;;;;;;;34.80;22.60;;;12.10;99.90;;;;;;4955177;28;20476;-71
2021/10/14 10:26:37;;;;;;;27.70;21.13;;;12.10;99.90;;;;;;4937105;28;20450;-72
2021/10/14 10:29:12;;;;;;;29.07;20.40;;;12.10;99.90;;;;;;4934234;28;20515;-72
2021/10/14 10:31:51;;;;;;;36.90;23.97;;;12.20;99.90;;;;;;4956073;28;20443;-73
2021/10/14 10:34:38;;;;;;;36.67;22.57;;;12.30;99.90;;;;;;4937191;28;20465;-75
2021/10/14 10:37:11;;;;;;;27.37;20.90;;;12.20;99.90;;;;;;4931448;28;20515;-72
2021/10/14 10:39:54;;;;;;;32.53;22.90;;;12.20;99.90;;;;;;4944157;28;20492;-72
2021/10/14 10:42:38;;;;;;;35.20;23.97;;;12.20;99.90;;;;;;4939089;28;20458;-72
2021/10/14 10:45:13;;;;;;;34.60;23.47;;;12.30;99.90;;;;;;4945019;28;20506;-73
2021/10/14 10:47:42;;;;;;;35.93;22.63;;;12.20;99.90;;;;;;4946217;28;20438;-71
2021/10/14 10:50:12;;;;;;;36.77;21.90;;;12.20;99.90;;;;;;4944665;28;20625;-72
2021/10/14 10:52:40;;;;;;;34.47;23.63;;;12.20;99.90;;;;;;4983456;28;20446;-72
2021/10/14 10:55:22;;;;;;;35.70;26.13;;;12.30;99.90;;;;;;5011542;27;20533;-72
2021/10/14 10:57:55;;;;;;;36.60;23.20;;;12.40;99.90;;;;;;5025734;28;20438;-72
2021/10/14 11:00:22;;;;;;;32.47;23.47;;;12.50;99.90;;;;;;5041955;27;20497;-73
2021/10/14 11:03:16;;;;;;;30.80;21.53;;;12.50;99.90;;;;;;5027310;28;20457;-74
2021/10/14 11:05:50;;;;;;;36.03;20.60;;;12.60;99.90;;;;;;5019882;27;20464;-72
2021/10/14 11:08:22;;;;;;;34.03;22.47;;;12.60;99.90;;;;;;5026486;27;20509;-71
2021/10/14 11:10:53;;;;;;;28.43;21.40;;;12.60;99.90;;;;;;5009072;27;20457;-72
2021/10/14 11:13:20;;;;;;;34.30;22.33;;;12.60;99.90;;;;;;5022462;28;20485;-72
2021/10/14 11:15:51;;;;;;;31.30;21.93;;;12.60;99.90;;;;;;5010881;27;20478;-72
2021/10/14 11:18:17;;;;;;;29.47;23.43;;;12.70;99.90;;;;;;5015560;27;20977;-73
2021/10/14 11:21:11;;;;;;;27.60;21.10;;;12.80;99.90;;;;;;5020789;28;20425;-73
2021/10/14 11:23:40;;;;;;;35.73;23.60;;;12.80;99.90;;;;;;5019080;28;20316;-73
2021/10/14 11:26:35;;;;;;;30.50;21.38;;;12.80;99.90;;;;;;5045800;28;20330;-73
2021/10/14 11:29:09;;;;;;;31.17;21.97;;;13.00;99.90;;;;;;5037558;28;20238;-73
2021/10/14 11:31:43;;;;;;;34.40;21.67;;;13.00;99.90;;;;;;5019646;28;20430;-72
2021/10/14 11:34:21;;;;;;;39.20;21.67;;;13.10;99.90;;;;;;5012350;28;20841;-73
2021/10/14 11:36:57;;;;;;;31.23;19.87;;;13.20;99.90;;;;;;5017286;27;20462;-73
2021/10/14 11:39:38;;;;;;;32.70;20.57;;;13.20;99.90;;;;;;5008488;28;20433;-73
2021/10/14 11:42:09;;;;;;;27.57;19.20;;;13.30;99.90;;;;;;5011566;28;20940;-73
2021/10/14 11:44:38;;;;;;;25.23;18.60;;;13.30;99.90;;;;;;5024251;28;20426;-73
2021/10/14 11:47:06;;;;;;;30.63;18.30;;;13.40;99.90;;;;;;5009836;27;20557;-74
2021/10/14 11:49:32;;;;;;;25.97;17.90;;;13.40;99.90;;;;;;5019542;28;20950;-73
2021/10/14 11:52:07;;;;;;;30.70;19.43;;;13.50;99.90;;;;;;5012423;28;20453;-73
2021/10/14 11:54:35;;;;;;;31.13;19.00;;;13.50;99.90;;;;;;5016912;28;20863;-73
2021/10/14 11:57:02;;;;;;;27.07;18.17;;;13.60;99.90;;;;;;5017261;28;21788;-73
2021/10/14 11:59:29;;;;;;;24.87;18.10;;;13.50;99.90;;;;;;5008122;27;21068;-73
2021/10/14 12:02:10;;;;;;;23.00;18.00;;;13.60;99.90;;;;;;5019417;28;20465;-73
2021/10/14 12:04:48;;;;;;;27.27;18.00;;;13.60;99.90;;;;;;5015940;28;20903;-73
2021/10/14 12:07:24;;;;;;;24.70;17.83;;;13.50;99.90;;;;;;5010503;28;21273;-72
2021/10/14 12:09:50;;;;;;;21.67;17.40;;;13.40;99.90;;;;;;5014026;27;20467;-73
2021/10/14 12:12:20;;;;;;;22.93;17.47;;;13.50;99.90;;;;;;5012228;28;20438;-73
2021/10/14 12:14:46;;;;;;;20.23;16.53;;;13.60;99.90;;;;;;5019745;28;20430;-73
2021/10/14 12:17:17;;;;;;;23.30;16.77;;;13.50;99.90;;;;;;5019517;28;21197;-73
2021/10/14 12:19:45;;;;;;;23.80;16.90;;;13.60;99.90;;;;;;5024486;27;20574;-73
2021/10/14 12:22:14;;;;;;;22.20;17.20;;;13.50;99.90;;;;;;5019392;28;20422;-73
2021/10/14 12:24:54;;;;;;;27.90;17.53;;;13.50;99.90;;;;;;5014323;28;20491;-73
2021/10/14 12:27:20;;;;;;;25.67;17.80;;;13.50;99.90;;;;;;5024984;28;20923;-73
2021/10/14 12:29:47;;;;;;;22.20;16.57;;;13.50;99.90;;;;;;5023213;27;20462;-73
2021/10/14 12:32:14;;;;;;;19.93;15.43;;;13.40;99.90;;;;;;5014437;28;20521;-73
2021/10/14 12:34:57;;;;;;;23.60;16.30;;;13.40;99.90;;;;;;5015171;28;20438;-73
2021/10/14 12:37:24;;;;;;;20.97;16.23;;;13.40;99.90;;;;;;5021342;28;20460;-73